Grant, NE (69140)

12:19 AM MST on December 06, 2016 (GMT -0700)
Northwest Chase County | | Change Station

Elev 3494 ft 40.67 °N, 101.91 °W | Updated 42 seconds ago

Scattered Clouds
Scattered Clouds
18.5 °F
Feels Like 18 °F
N
1.0
Wind Variable Wind from NW

Today
High -- | Low -- °F
--% Chance of Precip.
Yesterday
High -- | Low -- °F
Precip. -- in
Pressure 29.98 in
Visibility 10.0 miles
Clouds Scattered Clouds 11000 ft
Windchill 18 °F
Dew Point 10 °F
Humidity 71%
Rainfall 0.00 in
Snow Depth Not available.
6:57 AM 4:19 PM
Waxing Crescent, 39% visible
METAR KOGA 060655Z AUTO 29010KT 10SM SCT110 M07/M11 A2998 RMK AO2 T10661115 401241066
Pressure 29.98 in
Visibility 10.0 miles
Clouds Scattered Clouds 11000 ft
Windchill 18 °F
Dew Point 10 °F
Humidity 71%
Rainfall 0.00 in
Snow Depth Not available.
6:57 AM 4:19 PM
Waxing Crescent, 39% visible
METAR KOGA 060655Z AUTO 29010KT 10SM SCT110 M07/M11 A2998 RMK AO2 T10661115 401241066

10-Day Weather Forecast

Almanac

Astronomy

Dec. 06, 2016 Rise Set
Actual Time
Civil Twilight
Nautical Twilight
Astronomical Twilight
Moon
Length of Visible Light
Length of Day
Tomorrow will be .
, % of the Moon is Illuminated

Today's Extremes

State Highs State Lows

Community

WunderPhotos

Upload Photos

1,955,930 photos uploaded!

WunderBlog® & News

Nearby

Air Quality

  Air Quality AQ Index Pollutant
Not available.

Snow Depth

Station Depth Elevation

Earthquake Activity

City Distance Mag. Time & Date
Minimum magnitude displayed is 2.5.

Coastal Water Temperatures

Place Temperature

Stations

Nearby Weather Stations

Station Location Temp. Windchill Dew Point Humidity Wind Precip. Elev Updated Type
                   

Watches & Warnings

There are currently no watches in effect.